createdAt,value
2022-08-24T00:01:28.288Z,18.83
2022-08-24T00:03:59.840Z,18.72
2022-08-24T00:06:28.734Z,18.72
2022-08-24T00:08:58.332Z,18.68
2022-08-24T00:11:26.556Z,18.62
2022-08-24T00:13:54.944Z,18.50
2022-08-24T00:16:22.832Z,18.38
2022-08-24T00:18:50.448Z,18.34
2022-08-24T00:21:19.119Z,18.27
2022-08-24T00:23:49.656Z,18.19
2022-08-24T00:26:17.229Z,18.18
2022-08-24T00:28:48.620Z,18.14
2022-08-24T00:31:15.990Z,18.10
2022-08-24T00:33:43.650Z,18.06
2022-08-24T00:36:11.641Z,18.10
2022-08-24T00:38:39.677Z,18.12
2022-08-24T00:41:07.087Z,18.13
2022-08-24T00:43:35.300Z,18.12
2022-08-24T00:46:05.290Z,18.13
2022-08-24T00:48:34.469Z,18.11
2022-08-24T00:51:14.720Z,18.11
2022-08-24T00:53:56.003Z,18.12
2022-08-24T00:56:30.329Z,18.16
2022-08-24T00:59:01.163Z,18.10
2022-08-24T01:01:29.673Z,18.16
2022-08-24T01:03:57.798Z,18.08
2022-08-24T01:06:25.484Z,18.06
2022-08-24T01:08:56.258Z,18.01
2022-08-24T01:11:30.884Z,18.07
2022-08-24T01:14:04.193Z,18.01
2022-08-24T01:16:50.496Z,18.05
2022-08-24T01:19:39.983Z,18.03
2022-08-24T01:22:44.589Z,18.03
2022-08-24T01:25:12.395Z,17.97
2022-08-24T01:27:40.029Z,17.95
2022-08-24T01:30:11.861Z,18.00
2022-08-24T01:32:40.542Z,17.93
2022-08-24T01:35:09.275Z,17.87
2022-08-24T01:37:40.261Z,17.74
2022-08-24T01:40:11.591Z,17.71
2022-08-24T01:42:39.265Z,17.71
2022-08-24T01:45:07.336Z,17.73
2022-08-24T01:47:36.053Z,17.68
2022-08-24T01:50:04.981Z,17.59
2022-08-24T01:53:01.515Z,17.51
2022-08-24T01:55:22.666Z,17.45
2022-08-24T01:57:50.565Z,17.43
2022-08-24T02:00:18.439Z,17.48
2022-08-24T02:02:46.516Z,17.47
2022-08-24T02:05:15.549Z,17.42
2022-08-24T02:07:46.102Z,17.42
2022-08-24T02:10:15.095Z,17.40
2022-08-24T02:12:44.869Z,17.33
2022-08-24T02:15:12.995Z,17.33
2022-08-24T02:17:41.019Z,17.36
2022-08-24T02:20:09.231Z,17.36
2022-08-24T02:22:37.019Z,17.35
2022-08-24T02:25:06.086Z,17.35
2022-08-24T02:27:35.724Z,17.33
2022-08-24T02:30:03.769Z,17.25
2022-08-24T02:32:31.653Z,17.21
2022-08-24T02:34:59.145Z,17.15
2022-08-24T02:37:26.774Z,17.13
2022-08-24T02:39:55.159Z,17.10
2022-08-24T02:42:25.107Z,17.14
2022-08-24T02:44:53.810Z,17.17
2022-08-24T02:47:22.670Z,17.15
2022-08-24T02:50:07.931Z,17.22
2022-08-24T02:52:42.185Z,17.20
2022-08-24T02:55:13.350Z,17.16
2022-08-24T02:57:41.476Z,17.16
2022-08-24T03:00:12.289Z,17.09
2022-08-24T03:02:47.526Z,16.99
2022-08-24T03:05:15.564Z,16.97
2022-08-24T03:07:43.689Z,16.95
2022-08-24T03:10:12.030Z,16.93
2022-08-24T03:12:40.496Z,16.94
2022-08-24T03:15:10.762Z,16.90
2022-08-24T03:17:39.862Z,16.92
2022-08-24T03:20:12.032Z,16.92
2022-08-24T03:22:41.061Z,16.96
2022-08-24T03:25:09.170Z,16.98
2022-08-24T03:27:37.208Z,16.87
2022-08-24T03:30:05.749Z,17.02
2022-08-24T03:32:33.040Z,17.07
2022-08-24T03:35:02.495Z,17.04
2022-08-24T03:37:30.285Z,17.02
2022-08-24T03:39:57.934Z,16.95
2022-08-24T03:42:26.156Z,16.98
2022-08-24T03:44:53.575Z,16.99
2022-08-24T03:47:23.024Z,17.03
2022-08-24T03:49:51.439Z,17.11
2022-08-24T03:52:19.093Z,17.19
2022-08-24T03:54:49.537Z,17.21
2022-08-24T03:57:16.899Z,17.25
2022-08-24T03:59:46.674Z,17.28
2022-08-24T04:02:15.511Z,17.32
2022-08-24T04:04:43.177Z,17.41
2022-08-24T04:07:12.299Z,17.50
2022-08-24T04:09:40.080Z,17.52
2022-08-24T04:12:07.579Z,17.64
2022-08-24T04:14:35.488Z,17.70
2022-08-24T04:17:12.680Z,17.80
2022-08-24T04:19:58.024Z,17.81
2022-08-24T04:22:31.338Z,17.86
2022-08-24T04:24:58.914Z,17.85
2022-08-24T04:27:28.562Z,17.89
2022-08-24T04:29:57.035Z,17.91
2022-08-24T04:32:26.684Z,17.95
2022-08-24T04:34:56.521Z,17.99
2022-08-24T04:37:28.027Z,18.00
2022-08-24T04:39:57.953Z,18.04
2022-08-24T04:42:33.671Z,18.12
2022-08-24T04:45:01.724Z,18.18
2022-08-24T04:47:29.514Z,18.26
2022-08-24T04:49:56.904Z,18.30
2022-08-24T04:52:25.250Z,18.31
2022-08-24T04:54:53.049Z,18.37
2022-08-24T04:57:23.996Z,18.48
2022-08-24T04:59:56.739Z,18.58
2022-08-24T05:02:24.512Z,18.62
2022-08-24T05:04:57.333Z,18.70
2022-08-24T05:07:26.033Z,18.79
2022-08-24T05:09:53.437Z,18.70
2022-08-24T05:12:21.575Z,18.79
2022-08-24T05:14:58.899Z,18.96
2022-08-24T05:17:27.463Z,19.05
2022-08-24T05:19:54.923Z,19.13
2022-08-24T05:22:22.153Z,19.23
2022-08-24T05:24:54.408Z,19.31
2022-08-24T05:27:25.126Z,19.35
2022-08-24T05:29:56.564Z,19.42
2022-08-24T05:32:24.524Z,19.45
2022-08-24T05:34:53.694Z,19.51
2022-08-24T05:37:21.001Z,19.56
2022-08-24T05:40:11.436Z,19.67
2022-08-24T05:42:41.469Z,19.71
2022-08-24T05:45:10.920Z,19.80
2022-08-24T05:47:39.004Z,19.92
2022-08-24T05:50:19.480Z,20.07
2022-08-24T05:52:46.794Z,20.27
2022-08-24T05:55:14.441Z,20.51
2022-08-24T05:57:43.495Z,20.73
2022-08-24T06:00:16.763Z,21.00
2022-08-24T06:02:46.436Z,21.21
2022-08-24T06:05:14.884Z,21.42
2022-08-24T06:07:42.764Z,21.65
2022-08-24T06:10:35.250Z,21.74
2022-08-24T06:12:59.425Z,21.87
2022-08-24T06:15:27.313Z,21.98
2022-08-24T06:17:54.918Z,22.08
2022-08-24T06:20:22.751Z,22.08
2022-08-24T06:22:51.039Z,21.92
2022-08-24T06:25:37.995Z,22.01
2022-08-24T06:28:05.938Z,21.96
2022-08-24T06:30:35.007Z,22.00
2022-08-24T06:33:21.434Z,22.12
2022-08-24T06:35:52.240Z,22.16
2022-08-24T06:38:20.596Z,22.29
2022-08-24T06:40:51.384Z,22.41
2022-08-24T06:43:21.065Z,22.58
2022-08-24T06:45:55.287Z,22.68
2022-08-24T06:48:30.568Z,22.88
2022-08-24T06:50:59.574Z,23.08
2022-08-24T06:53:27.883Z,23.08
2022-08-24T06:55:59.400Z,23.07
2022-08-24T06:58:29.030Z,23.19
2022-08-24T07:00:57.714Z,23.21
2022-08-24T07:03:25.867Z,23.09
2022-08-24T07:06:05.238Z,23.15
2022-08-24T07:08:38.319Z,23.28
2022-08-24T07:11:06.618Z,23.21
2022-08-24T07:13:34.476Z,23.34
2022-08-24T07:16:02.502Z,23.55
2022-08-24T07:18:33.583Z,23.75
2022-08-24T07:21:04.996Z,24.08
2022-08-24T07:23:42.086Z,24.14
2022-08-24T07:26:18.836Z,24.06
2022-08-24T07:29:05.063Z,23.98
2022-08-24T07:31:42.919Z,23.99
2022-08-24T07:34:31.312Z,24.08
2022-08-24T07:37:00.638Z,24.07
2022-08-24T07:39:29.023Z,24.26
2022-08-24T07:42:16.076Z,24.31
2022-08-24T07:44:45.952Z,24.31
2022-08-24T07:47:38.851Z,24.36
2022-08-24T07:50:03.915Z,24.47
2022-08-24T07:52:32.443Z,24.62
2022-08-24T07:54:59.727Z,24.78
2022-08-24T07:57:29.465Z,24.92
2022-08-24T07:59:59.535Z,24.89
2022-08-24T08:02:29.976Z,25.01
2022-08-24T08:05:02.725Z,24.91
2022-08-24T08:07:31.759Z,24.99
2022-08-24T08:10:02.092Z,24.91
2022-08-24T08:12:31.164Z,24.89
2022-08-24T08:14:59.029Z,24.97
2022-08-24T08:17:27.207Z,25.17
2022-08-24T08:19:55.162Z,25.26
2022-08-24T08:22:42.690Z,25.25
2022-08-24T08:25:31.874Z,25.25
2022-08-24T08:28:08.033Z,25.17
2022-08-24T08:30:47.170Z,25.05
2022-08-24T08:33:15.447Z,25.09
2022-08-24T08:35:44.460Z,25.01
2022-08-24T08:38:12.766Z,24.98
2022-08-24T08:40:46.404Z,25.01
2022-08-24T08:43:40.007Z,25.19
2022-08-24T08:46:16.981Z,25.30
2022-08-24T08:49:07.876Z,25.35
2022-08-24T08:51:57.114Z,25.55
2022-08-24T08:54:31.451Z,25.62
2022-08-24T08:57:20.655Z,25.69
2022-08-24T08:59:58.314Z,25.74
2022-08-24T09:02:48.036Z,25.80
2022-08-24T09:05:47.474Z,25.79
2022-08-24T09:08:41.833Z,25.96
2022-08-24T09:11:41.772Z,25.84
2022-08-24T09:14:12.256Z,25.90
2022-08-24T09:17:02.579Z,25.86
2022-08-24T09:19:52.834Z,25.98
2022-08-24T09:22:21.266Z,26.02
2022-08-24T09:24:55.061Z,26.10
2022-08-24T09:28:01.693Z,26.11
2022-08-24T09:30:39.929Z,26.24
2022-08-24T09:33:18.409Z,26.42
2022-08-24T09:36:05.983Z,26.40
2022-08-24T09:38:52.399Z,26.46
2022-08-24T09:41:41.523Z,26.45
2022-08-24T09:44:34.041Z,26.66
2022-08-24T09:47:28.185Z,26.82
2022-08-24T09:50:14.077Z,26.68
2022-08-24T09:52:52.281Z,26.74
2022-08-24T09:55:36.487Z,26.94
2022-08-24T09:58:41.269Z,27.23
2022-08-24T10:01:28.322Z,27.14
2022-08-24T10:04:24.257Z,27.01
2022-08-24T10:07:10.447Z,27.03
2022-08-24T10:09:56.785Z,27.17
2022-08-24T10:12:47.343Z,27.39
2022-08-24T10:15:21.534Z,27.60
2022-08-24T10:18:17.934Z,27.63
2022-08-24T10:21:25.656Z,27.47
2022-08-24T10:24:13.462Z,27.44
2022-08-24T10:26:51.144Z,27.49
2022-08-24T10:29:58.293Z,27.52
2022-08-24T10:32:47.801Z,27.65
2022-08-24T10:35:22.714Z,27.76
2022-08-24T10:38:46.275Z,27.86
2022-08-24T10:41:51.824Z,27.93
2022-08-24T10:44:43.827Z,28.00
2022-08-24T10:47:29.347Z,28.17
2022-08-24T10:50:02.796Z,28.43
2022-08-24T10:52:48.414Z,28.68
2022-08-24T10:55:42.506Z,28.92
2022-08-24T10:58:31.804Z,28.73
2022-08-24T11:01:27.621Z,28.41
2022-08-24T11:04:03.168Z,28.21
2022-08-24T11:06:37.100Z,28.13
2022-08-24T11:09:19.278Z,28.11
2022-08-24T11:11:49.981Z,28.05
2022-08-24T11:14:27.653Z,27.72
2022-08-24T11:17:15.239Z,27.80
2022-08-24T11:19:43.778Z,27.97
2022-08-24T11:22:31.724Z,28.19
2022-08-24T11:25:05.188Z,28.18
2022-08-24T11:27:38.504Z,28.16
2022-08-24T11:30:20.165Z,28.27
2022-08-24T11:32:58.655Z,28.08
2022-08-24T11:35:31.953Z,28.34
2022-08-24T11:38:32.442Z,28.63
2022-08-24T11:41:07.107Z,28.63
2022-08-24T11:43:41.258Z,28.80
2022-08-24T11:46:30.276Z,28.99
2022-08-24T11:49:32.752Z,28.93
2022-08-24T11:52:11.205Z,29.07
2022-08-24T11:54:51.199Z,29.00
2022-08-24T11:57:23.091Z,29.15
2022-08-24T12:00:13.814Z,29.35
2022-08-24T12:03:04.523Z,29.52
2022-08-24T12:06:17.268Z,29.49
2022-08-24T12:08:55.981Z,29.32
2022-08-24T12:11:31.601Z,29.17
2022-08-24T12:14:20.455Z,29.25
2022-08-24T12:17:01.278Z,29.05
2022-08-24T12:19:35.756Z,28.99
2022-08-24T12:22:06.290Z,28.91
2022-08-24T12:24:40.237Z,28.95
2022-08-24T12:27:21.648Z,29.01
2022-08-24T12:29:54.612Z,28.90
2022-08-24T12:32:25.938Z,28.92
2022-08-24T12:35:06.164Z,28.74
2022-08-24T12:37:47.213Z,28.44
2022-08-24T12:40:32.539Z,28.60
2022-08-24T12:43:45.905Z,28.67
2022-08-24T12:46:17.490Z,28.70
2022-08-24T12:49:12.871Z,28.54
2022-08-24T12:51:59.062Z,28.34
2022-08-24T12:54:29.119Z,28.48
2022-08-24T12:57:16.237Z,28.33
2022-08-24T12:59:47.900Z,28.33
2022-08-24T13:02:15.788Z,28.37
2022-08-24T13:04:57.069Z,28.41
2022-08-24T13:07:24.832Z,28.61
2022-08-24T13:09:58.318Z,28.80
2022-08-24T13:12:45.243Z,28.76
2022-08-24T13:15:28.363Z,28.76
2022-08-24T13:18:09.553Z,28.70
2022-08-24T13:20:37.223Z,28.93
2022-08-24T13:23:07.573Z,28.87
2022-08-24T13:25:58.791Z,28.86
2022-08-24T13:28:32.142Z,28.89
2022-08-24T13:31:06.797Z,28.96
2022-08-24T13:33:50.917Z,29.09
2022-08-24T13:36:36.995Z,28.90
2022-08-24T13:39:17.811Z,28.86
2022-08-24T13:41:49.599Z,28.90
2022-08-24T13:44:37.533Z,28.94
2022-08-24T13:47:28.326Z,28.81
2022-08-24T13:50:28.089Z,28.81
2022-08-24T13:53:34.085Z,28.70
2022-08-24T13:56:32.418Z,28.71
2022-08-24T13:59:16.733Z,28.63
2022-08-24T14:02:05.117Z,28.68
2022-08-24T14:04:47.615Z,28.86
2022-08-24T14:07:15.667Z,28.88
2022-08-24T14:10:14.460Z,28.97
2022-08-24T14:13:05.365Z,29.20
2022-08-24T14:16:14.105Z,29.24
2022-08-24T14:19:04.140Z,29.27
2022-08-24T14:21:47.597Z,29.36
2022-08-24T14:24:45.722Z,29.46
2022-08-24T14:27:35.440Z,29.33
2022-08-24T14:30:29.585Z,29.34
2022-08-24T14:33:00.199Z,29.35
2022-08-24T14:36:10.232Z,29.44
2022-08-24T14:38:54.644Z,29.44
2022-08-24T14:41:31.429Z,29.42
2022-08-24T14:44:36.878Z,29.47
2022-08-24T14:47:17.210Z,29.38
2022-08-24T14:49:45.243Z,29.44
2022-08-24T14:52:50.596Z,29.37
2022-08-24T14:55:56.927Z,29.32
2022-08-24T14:58:47.239Z,29.44
2022-08-24T15:01:56.702Z,29.41
2022-08-24T15:04:37.684Z,29.44
2022-08-24T15:07:27.274Z,29.27
2022-08-24T15:09:56.308Z,29.34
2022-08-24T15:12:37.365Z,29.35
2022-08-24T15:15:27.371Z,29.38
2022-08-24T15:17:58.391Z,29.32
2022-08-24T15:20:37.976Z,29.29
2022-08-24T15:23:11.853Z,29.32
2022-08-24T15:25:48.069Z,29.27
2022-08-24T15:28:25.891Z,29.17
2022-08-24T15:31:11.326Z,29.16
2022-08-24T15:33:57.909Z,29.23
2022-08-24T15:36:26.516Z,29.20
2022-08-24T15:38:54.618Z,29.17
2022-08-24T15:41:26.169Z,29.18
2022-08-24T15:43:57.156Z,29.04
2022-08-24T15:46:37.148Z,28.95
2022-08-24T15:49:28.987Z,28.78
2022-08-24T15:52:34.224Z,28.57
2022-08-24T15:55:04.509Z,28.54
2022-08-24T15:57:37.177Z,28.53
2022-08-24T16:00:15.309Z,28.49
2022-08-24T16:02:43.800Z,28.47
2022-08-24T16:05:24.470Z,28.35
2022-08-24T16:08:04.560Z,28.18
2022-08-24T16:10:41.472Z,28.12
2022-08-24T16:13:31.483Z,28.07
2022-08-24T16:16:11.156Z,28.04
2022-08-24T16:18:46.557Z,28.04
2022-08-24T16:21:33.962Z,27.96
2022-08-24T16:24:05.855Z,27.92
2022-08-24T16:26:53.370Z,27.87
2022-08-24T16:29:39.704Z,27.96
2022-08-24T16:32:21.538Z,27.91
2022-08-24T16:35:09.845Z,27.92
2022-08-24T16:37:39.467Z,27.96
2022-08-24T16:40:08.665Z,27.96
2022-08-24T16:42:37.005Z,27.92
2022-08-24T16:45:06.509Z,27.88
2022-08-24T16:47:34.107Z,27.83
2022-08-24T16:50:01.569Z,27.72
2022-08-24T16:52:29.691Z,27.68
2022-08-24T16:54:57.911Z,27.70
2022-08-24T16:57:31.605Z,27.68
2022-08-24T16:59:59.887Z,27.68
2022-08-24T17:02:27.399Z,27.57
2022-08-24T17:04:55.064Z,27.44
2022-08-24T17:07:25.615Z,27.36
2022-08-24T17:09:53.854Z,27.33
2022-08-24T17:12:21.557Z,27.26
2022-08-24T17:14:49.387Z,27.20
2022-08-24T17:17:21.353Z,27.08
2022-08-24T17:19:50.527Z,26.93
2022-08-24T17:22:18.443Z,26.84
2022-08-24T17:24:46.604Z,26.75
2022-08-24T17:27:14.938Z,26.61
2022-08-24T17:29:44.721Z,26.44
2022-08-24T17:32:13.306Z,26.33
2022-08-24T17:34:41.063Z,26.28
2022-08-24T17:37:09.831Z,26.21
2022-08-24T17:39:37.299Z,26.13
2022-08-24T17:42:13.745Z,25.95
2022-08-24T17:44:53.271Z,25.73
2022-08-24T17:47:20.991Z,25.63
2022-08-24T17:49:48.529Z,25.42
2022-08-24T17:52:16.318Z,25.43
2022-08-24T17:54:43.792Z,25.36
2022-08-24T17:57:12.802Z,25.14
2022-08-24T17:59:41.007Z,24.97
2022-08-24T18:02:13.118Z,24.93
2022-08-24T18:04:41.514Z,24.85
2022-08-24T18:07:12.608Z,24.78
2022-08-24T18:09:48.689Z,24.74
2022-08-24T18:12:18.543Z,24.56
2022-08-24T18:14:46.373Z,24.48
2022-08-24T18:17:21.090Z,24.43
2022-08-24T18:19:51.032Z,24.36
2022-08-24T18:22:18.495Z,24.32
2022-08-24T18:24:45.905Z,24.27
2022-08-24T18:27:22.426Z,24.20
2022-08-24T18:29:54.691Z,24.05
2022-08-24T18:32:22.611Z,23.98
2022-08-24T18:34:56.026Z,23.94
2022-08-24T18:37:24.531Z,23.89
2022-08-24T18:39:52.182Z,23.78
2022-08-24T18:42:19.668Z,23.66
2022-08-24T18:44:47.408Z,23.60
2022-08-24T18:47:15.779Z,23.55
2022-08-24T18:49:43.204Z,23.57
2022-08-24T18:52:13.777Z,23.60
2022-08-24T18:54:44.886Z,23.62
2022-08-24T18:57:12.709Z,23.62
2022-08-24T18:59:41.310Z,23.67
2022-08-24T19:02:31.429Z,23.68
2022-08-24T19:05:03.420Z,23.68
2022-08-24T19:07:32.758Z,23.65
2022-08-24T19:10:00.937Z,23.62
2022-08-24T19:12:31.498Z,23.59
2022-08-24T19:14:59.752Z,23.52
2022-08-24T19:17:29.038Z,23.48
2022-08-24T19:19:56.498Z,23.47
2022-08-24T19:22:25.303Z,23.42
2022-08-24T19:24:53.950Z,23.40
2022-08-24T19:27:21.649Z,23.35
2022-08-24T19:29:56.960Z,23.30
2022-08-24T19:32:27.201Z,23.31
2022-08-24T19:34:55.523Z,23.29
2022-08-24T19:37:23.552Z,23.28
2022-08-24T19:39:51.367Z,23.31
2022-08-24T19:42:19.254Z,23.33
2022-08-24T19:45:04.983Z,23.44
2022-08-24T19:47:34.765Z,23.56
2022-08-24T19:50:03.073Z,23.63
2022-08-24T19:52:32.742Z,23.60
2022-08-24T19:55:00.899Z,23.59
2022-08-24T19:57:34.051Z,23.58
2022-08-24T20:00:19.778Z,23.46
2022-08-24T20:02:48.872Z,23.39
2022-08-24T20:05:18.052Z,23.25
2022-08-24T20:07:46.647Z,22.83
2022-08-24T20:10:15.717Z,22.49
2022-08-24T20:12:43.726Z,22.07
2022-08-24T20:15:12.268Z,21.97
2022-08-24T20:17:39.783Z,21.97
2022-08-24T20:20:09.490Z,21.96
2022-08-24T20:22:37.499Z,21.77
2022-08-24T20:25:06.262Z,21.72
2022-08-24T20:27:34.184Z,21.63
2022-08-24T20:30:01.990Z,21.54
2022-08-24T20:32:29.789Z,21.55
2022-08-24T20:34:57.538Z,21.50
2022-08-24T20:37:27.755Z,21.57
2022-08-24T20:39:57.336Z,21.62
2022-08-24T20:42:28.028Z,21.56
2022-08-24T20:44:55.819Z,21.53
2022-08-24T20:47:23.745Z,21.53
2022-08-24T20:49:51.948Z,21.50
2022-08-24T20:52:19.381Z,21.49
2022-08-24T20:54:47.096Z,21.54
2022-08-24T20:57:18.334Z,21.46
2022-08-24T20:59:46.462Z,21.41
2022-08-24T21:02:14.262Z,21.36
2022-08-24T21:04:42.182Z,21.20
2022-08-24T21:07:11.868Z,21.04
2022-08-24T21:09:39.628Z,21.09
2022-08-24T21:12:08.346Z,20.99
2022-08-24T21:14:35.922Z,21.00
2022-08-24T21:17:05.808Z,20.95
2022-08-24T21:19:34.403Z,20.88
2022-08-24T21:22:02.002Z,20.86
2022-08-24T21:24:29.722Z,20.79
2022-08-24T21:26:58.742Z,20.71
2022-08-24T21:29:29.390Z,20.66
2022-08-24T21:32:15.485Z,20.52
2022-08-24T21:34:43.092Z,20.47
2022-08-24T21:37:13.124Z,20.44
2022-08-24T21:39:41.083Z,20.30
2022-08-24T21:42:09.815Z,20.25
2022-08-24T21:44:37.175Z,20.17
2022-08-24T21:47:06.733Z,20.13
2022-08-24T21:49:34.822Z,20.10
2022-08-24T21:52:02.527Z,20.04
2022-08-24T21:54:30.208Z,19.96
2022-08-24T21:56:58.474Z,20.01
2022-08-24T21:59:26.210Z,19.95
2022-08-24T22:01:53.760Z,19.91
2022-08-24T22:04:21.453Z,19.84
2022-08-24T22:06:50.123Z,19.84
2022-08-24T22:09:17.881Z,19.78
2022-08-24T22:11:45.824Z,19.79
2022-08-24T22:14:15.387Z,19.75
2022-08-24T22:16:45.065Z,19.70
2022-08-24T22:19:14.058Z,19.67
2022-08-24T22:21:47.874Z,19.64
2022-08-24T22:24:16.764Z,19.64
2022-08-24T22:26:44.288Z,19.62
2022-08-24T22:29:11.832Z,19.58
2022-08-24T22:31:42.210Z,19.59
2022-08-24T22:34:13.106Z,19.55
2022-08-24T22:36:47.419Z,19.53
2022-08-24T22:39:14.970Z,19.54
2022-08-24T22:41:42.481Z,19.52
2022-08-24T22:44:22.317Z,19.53
2022-08-24T22:46:55.784Z,19.49
2022-08-24T22:49:26.736Z,19.48
2022-08-24T22:51:54.342Z,19.58
2022-08-24T22:54:22.396Z,19.58
2022-08-24T22:56:52.654Z,19.51
2022-08-24T22:59:28.959Z,19.60
2022-08-24T23:01:58.047Z,19.61
2022-08-24T23:04:29.314Z,19.61
2022-08-24T23:06:57.109Z,19.63
2022-08-24T23:09:25.390Z,19.61
2022-08-24T23:11:52.809Z,19.60
2022-08-24T23:14:21.356Z,19.52
2022-08-24T23:16:50.069Z,19.62
2022-08-24T23:19:38.674Z,19.65
2022-08-24T23:22:08.319Z,19.62
2022-08-24T23:24:36.521Z,19.61
2022-08-24T23:27:05.177Z,19.67
2022-08-24T23:29:33.377Z,19.63
2022-08-24T23:32:01.756Z,19.64
2022-08-24T23:34:31.835Z,19.62
2022-08-24T23:36:59.856Z,19.63
2022-08-24T23:39:28.045Z,19.64
2022-08-24T23:41:55.785Z,19.62
2022-08-24T23:44:27.199Z,19.60
2022-08-24T23:46:55.497Z,19.69
2022-08-24T23:49:23.375Z,19.64
2022-08-24T23:51:52.534Z,19.67
2022-08-24T23:54:22.093Z,19.65
2022-08-24T23:56:50.623Z,19.69
2022-08-24T23:59:27.563Z,19.73
